createdAt,value
2023-01-23T00:00:44.249Z,17.20
2023-01-23T00:03:05.534Z,18.37
2023-01-23T00:05:26.844Z,18.10
2023-01-23T00:07:47.925Z,17.77
2023-01-23T00:10:12.121Z,17.57
2023-01-23T00:12:33.397Z,17.33
2023-01-23T00:14:55.562Z,17.80
2023-01-23T00:17:17.005Z,17.40
2023-01-23T00:19:38.229Z,17.63
2023-01-23T00:22:00.039Z,17.60
2023-01-23T00:24:21.053Z,17.83
2023-01-23T00:26:43.814Z,16.97
2023-01-23T00:29:05.479Z,18.27
2023-01-23T00:31:27.831Z,18.73
2023-01-23T00:33:49.381Z,18.50
2023-01-23T00:36:10.746Z,19.47
2023-01-23T00:38:31.860Z,19.83
2023-01-23T00:40:54.534Z,19.20
2023-01-23T00:43:16.920Z,19.43
2023-01-23T00:45:38.393Z,19.87
2023-01-23T00:47:59.511Z,19.97
2023-01-23T00:50:21.611Z,18.97
2023-01-23T00:52:42.888Z,17.57
2023-01-23T00:55:04.935Z,18.07
2023-01-23T00:57:26.345Z,17.90
2023-01-23T00:59:49.113Z,18.53
2023-01-23T01:02:10.563Z,17.60
2023-01-23T01:04:31.941Z,17.73
2023-01-23T01:06:53.338Z,17.10
2023-01-23T01:09:14.799Z,18.03
2023-01-23T01:11:35.867Z,17.33
2023-01-23T01:13:57.244Z,16.83
2023-01-23T01:16:19.959Z,16.93
2023-01-23T01:18:41.488Z,17.47
2023-01-23T01:21:02.526Z,19.67
2023-01-23T01:23:23.868Z,18.87
2023-01-23T01:25:45.426Z,18.67
2023-01-23T01:28:07.238Z,19.67
2023-01-23T01:30:29.567Z,20.33
2023-01-23T01:32:53.064Z,17.93
2023-01-23T01:35:14.595Z,18.40
2023-01-23T01:37:35.946Z,18.80
2023-01-23T01:39:57.165Z,19.27
2023-01-23T01:42:18.572Z,17.33
2023-01-23T01:44:53.231Z,18.63
2023-01-23T01:47:16.051Z,17.63
2023-01-23T01:49:39.000Z,17.67
2023-01-23T01:52:01.926Z,18.77
2023-01-23T01:54:25.853Z,18.07
2023-01-23T01:56:49.385Z,17.73
2023-01-23T01:59:11.532Z,18.80
2023-01-23T02:01:32.759Z,18.40
2023-01-23T02:03:54.423Z,17.53
2023-01-23T02:06:17.146Z,17.27
2023-01-23T02:08:42.696Z,17.67
2023-01-23T02:11:05.268Z,18.33
2023-01-23T02:13:30.380Z,17.60
2023-01-23T02:15:52.209Z,17.90
2023-01-23T02:18:13.656Z,17.73
2023-01-23T02:20:34.965Z,17.63
2023-01-23T02:23:02.277Z,18.83
2023-01-23T02:25:28.369Z,17.47
2023-01-23T02:27:50.722Z,17.13
2023-01-23T02:30:13.876Z,17.93
2023-01-23T02:32:35.944Z,15.60
2023-01-23T02:34:59.214Z,18.10
2023-01-23T02:37:20.611Z,18.10
2023-01-23T02:39:42.097Z,16.77
2023-01-23T02:42:04.776Z,17.67
2023-01-23T02:44:28.572Z,17.10
2023-01-23T02:46:49.642Z,18.03
2023-01-23T02:49:10.888Z,17.57
2023-01-23T02:51:32.491Z,16.67
2023-01-23T02:53:53.672Z,17.70
2023-01-23T02:56:15.437Z,16.87
2023-01-23T02:58:54.190Z,17.60
2023-01-23T03:01:16.728Z,16.33
2023-01-23T03:03:38.124Z,16.97
2023-01-23T03:06:03.238Z,16.03
2023-01-23T03:08:34.296Z,16.07
2023-01-23T03:10:55.287Z,16.73
2023-01-23T03:13:16.633Z,16.30
2023-01-23T03:15:39.203Z,16.90
2023-01-23T03:18:02.341Z,16.30
2023-01-23T03:20:23.714Z,15.83
2023-01-23T03:22:44.798Z,15.77
2023-01-23T03:25:06.438Z,16.00
2023-01-23T03:27:27.624Z,15.80
2023-01-23T03:30:06.673Z,15.50
2023-01-23T03:32:29.360Z,17.10
2023-01-23T03:34:51.778Z,16.07
2023-01-23T03:37:13.573Z,15.83
2023-01-23T03:39:52.729Z,16.50
2023-01-23T03:42:14.169Z,15.63
2023-01-23T03:44:35.495Z,16.20
2023-01-23T03:46:56.885Z,16.30
2023-01-23T03:49:18.354Z,16.57
2023-01-23T03:51:40.847Z,15.13
2023-01-23T03:54:02.055Z,15.70
2023-01-23T03:56:23.433Z,16.43
2023-01-23T03:58:44.680Z,15.40
2023-01-23T04:01:09.719Z,15.73
2023-01-23T04:03:31.121Z,15.90
2023-01-23T04:05:56.324Z,15.57
2023-01-23T04:08:18.962Z,15.43
2023-01-23T04:10:40.393Z,15.13
2023-01-23T04:13:01.743Z,16.67
2023-01-23T04:15:22.895Z,16.63
2023-01-23T04:17:44.311Z,15.30
2023-01-23T04:20:06.440Z,15.33
2023-01-23T04:22:28.261Z,15.43
2023-01-23T04:24:50.684Z,15.30
2023-01-23T04:27:12.228Z,15.40
2023-01-23T04:29:33.350Z,15.93
2023-01-23T04:31:54.583Z,16.23
2023-01-23T04:34:15.757Z,16.20
2023-01-23T04:36:37.173Z,15.83
2023-01-23T04:38:59.010Z,16.67
2023-01-23T04:41:22.657Z,16.60
2023-01-23T04:43:44.111Z,17.37
2023-01-23T04:46:05.595Z,16.33
2023-01-23T04:48:27.048Z,16.87
2023-01-23T04:50:48.693Z,17.67
2023-01-23T04:53:09.777Z,23.93
2023-01-23T04:55:31.152Z,20.53
2023-01-23T04:57:53.841Z,21.87
2023-01-23T05:00:15.573Z,20.97
2023-01-23T05:02:37.001Z,17.83
2023-01-23T05:04:58.251Z,16.60
2023-01-23T05:07:19.647Z,17.47
2023-01-23T05:09:41.113Z,17.70
2023-01-23T05:12:02.349Z,17.67
2023-01-23T05:14:25.392Z,17.20
2023-01-23T05:16:46.824Z,16.10
2023-01-23T05:19:08.361Z,17.63
2023-01-23T05:21:29.678Z,16.33
2023-01-23T05:23:51.013Z,16.47
2023-01-23T05:26:12.409Z,17.03
2023-01-23T05:28:34.114Z,16.30
2023-01-23T05:30:57.089Z,16.17
2023-01-23T05:33:18.644Z,16.87
2023-01-23T05:35:40.207Z,15.00
2023-01-23T05:38:01.647Z,15.83
2023-01-23T05:40:22.758Z,15.60
2023-01-23T05:42:44.091Z,15.70
2023-01-23T05:45:05.852Z,15.37
2023-01-23T05:47:28.655Z,15.97
2023-01-23T05:49:49.658Z,15.67
2023-01-23T05:52:10.957Z,15.83
2023-01-23T05:54:32.388Z,15.23
2023-01-23T05:56:53.621Z,15.90
2023-01-23T05:59:14.990Z,15.73
2023-01-23T06:01:36.343Z,14.63
2023-01-23T06:03:59.283Z,15.47
2023-01-23T06:06:20.340Z,15.13
2023-01-23T06:08:41.583Z,15.00
2023-01-23T06:11:02.912Z,15.70
2023-01-23T06:13:24.307Z,15.37
2023-01-23T06:15:45.592Z,15.40
2023-01-23T06:18:06.971Z,15.23
2023-01-23T06:20:29.548Z,15.10
2023-01-23T06:22:51.785Z,15.07
2023-01-23T06:25:13.186Z,15.53
2023-01-23T06:27:34.875Z,15.77
2023-01-23T06:29:56.497Z,15.10
2023-01-23T06:32:17.944Z,16.20
2023-01-23T06:34:39.651Z,15.17
2023-01-23T06:37:02.822Z,15.73
2023-01-23T06:39:24.024Z,15.57
2023-01-23T06:41:45.442Z,16.17
2023-01-23T06:44:07.726Z,16.23
2023-01-23T06:46:28.864Z,15.40
2023-01-23T06:48:50.313Z,16.70
2023-01-23T06:51:11.412Z,16.27
2023-01-23T06:53:34.090Z,17.40
2023-01-23T06:55:55.204Z,17.00
2023-01-23T06:58:16.670Z,18.37
2023-01-23T07:00:37.913Z,18.53
2023-01-23T07:03:03.625Z,16.80
2023-01-23T07:05:25.257Z,16.33
2023-01-23T07:07:47.291Z,17.20
2023-01-23T07:10:10.747Z,17.23
2023-01-23T07:12:33.081Z,16.60
2023-01-23T07:14:54.177Z,15.63
2023-01-23T07:17:15.489Z,15.90
2023-01-23T07:19:36.789Z,16.00
2023-01-23T07:21:57.990Z,16.80
2023-01-23T07:24:19.323Z,17.23
2023-01-23T07:26:42.163Z,16.97
2023-01-23T07:29:03.684Z,17.33
2023-01-23T07:31:25.290Z,16.80
2023-01-23T07:33:47.171Z,16.33
2023-01-23T07:36:09.341Z,17.20
2023-01-23T07:38:30.595Z,15.73
2023-01-23T07:40:51.989Z,15.90
2023-01-23T07:43:14.741Z,16.10
2023-01-23T07:45:36.118Z,15.97
2023-01-23T07:47:57.321Z,16.57
2023-01-23T07:50:19.249Z,16.40
2023-01-23T07:52:41.011Z,15.30
2023-01-23T07:55:02.291Z,15.87
2023-01-23T07:57:23.655Z,16.57
2023-01-23T07:59:46.377Z,15.87
2023-01-23T08:02:07.682Z,16.13
2023-01-23T08:04:29.238Z,17.73
2023-01-23T08:06:50.881Z,16.17
2023-01-23T08:09:12.683Z,16.27
2023-01-23T08:11:34.472Z,16.60
2023-01-23T08:13:55.933Z,16.27
2023-01-23T08:16:18.703Z,15.13
2023-01-23T08:18:40.087Z,16.30
2023-01-23T08:21:02.843Z,15.97
2023-01-23T08:23:25.254Z,16.07
2023-01-23T08:25:46.472Z,16.03
2023-01-23T08:28:07.444Z,15.43
2023-01-23T08:30:28.731Z,15.53
2023-01-23T08:32:51.409Z,16.07
2023-01-23T08:35:12.441Z,15.23
2023-01-23T08:37:34.442Z,16.07
2023-01-23T08:39:55.501Z,16.43
2023-01-23T08:42:16.692Z,15.87
2023-01-23T08:44:37.999Z,15.87
2023-01-23T08:46:59.271Z,17.10
2023-01-23T08:49:22.059Z,16.57
2023-01-23T08:51:43.320Z,16.53
2023-01-23T08:54:04.579Z,16.40
2023-01-23T08:56:26.149Z,17.17
2023-01-23T08:58:47.782Z,18.23
2023-01-23T09:01:11.814Z,19.40
2023-01-23T09:03:32.995Z,21.07
2023-01-23T09:05:55.808Z,17.70
2023-01-23T09:08:17.312Z,18.20
2023-01-23T09:10:38.521Z,17.83
2023-01-23T09:12:59.998Z,16.90
2023-01-23T09:15:22.452Z,14.77
2023-01-23T09:17:43.745Z,15.17
2023-01-23T09:20:07.055Z,15.33
2023-01-23T09:22:29.726Z,14.63
2023-01-23T09:24:50.795Z,13.47
2023-01-23T09:27:11.984Z,13.30
2023-01-23T09:29:33.515Z,13.00
2023-01-23T09:31:54.842Z,12.93
2023-01-23T09:34:17.268Z,13.00
2023-01-23T09:36:43.380Z,13.57
2023-01-23T09:39:06.142Z,12.57
2023-01-23T09:41:28.610Z,13.43
2023-01-23T09:43:54.003Z,12.60
2023-01-23T09:46:19.017Z,12.03
2023-01-23T09:48:43.658Z,12.80
2023-01-23T09:51:06.152Z,11.97
2023-01-23T09:53:28.553Z,11.87
2023-01-23T09:55:56.188Z,10.47
2023-01-23T09:58:23.100Z,11.07
2023-01-23T10:00:44.037Z,11.10
2023-01-23T10:03:12.270Z,10.67
2023-01-23T10:05:43.470Z,11.57
2023-01-23T10:08:11.405Z,10.67
2023-01-23T10:10:40.537Z,10.67
2023-01-23T10:13:05.780Z,11.00
2023-01-23T10:15:32.769Z,12.17
2023-01-23T10:18:00.115Z,10.70
2023-01-23T10:20:39.730Z,10.90
2023-01-23T10:23:06.964Z,11.83
2023-01-23T10:25:32.797Z,11.30
2023-01-23T10:27:56.856Z,11.27
2023-01-23T10:30:22.011Z,11.77
2023-01-23T10:32:47.509Z,11.90
2023-01-23T10:35:13.388Z,11.70
2023-01-23T10:37:39.748Z,11.20
2023-01-23T10:40:01.978Z,11.80
2023-01-23T10:42:24.521Z,11.70
2023-01-23T10:44:45.820Z,11.67
2023-01-23T10:47:15.438Z,11.43
2023-01-23T10:49:39.188Z,12.50
2023-01-23T10:52:00.254Z,12.47
2023-01-23T10:54:31.723Z,12.93
2023-01-23T10:56:58.865Z,12.43
2023-01-23T10:59:21.899Z,12.47
2023-01-23T11:01:57.726Z,13.40
2023-01-23T11:04:21.963Z,12.47
2023-01-23T11:06:42.914Z,14.60
2023-01-23T11:09:06.197Z,14.23
2023-01-23T11:11:28.552Z,13.07
2023-01-23T11:13:50.905Z,12.80
2023-01-23T11:16:15.848Z,12.57
2023-01-23T11:18:42.458Z,12.70
2023-01-23T11:21:05.298Z,13.13
2023-01-23T11:23:26.653Z,13.70
2023-01-23T11:25:48.640Z,13.93
2023-01-23T11:28:20.313Z,14.03
2023-01-23T11:30:45.735Z,13.70
2023-01-23T11:33:13.775Z,13.67
2023-01-23T11:35:45.541Z,15.27
2023-01-23T11:38:10.882Z,13.03
2023-01-23T11:40:32.105Z,13.07
2023-01-23T11:42:53.593Z,13.53
2023-01-23T11:45:15.856Z,12.53
2023-01-23T11:47:51.787Z,13.57
2023-01-23T11:50:19.298Z,13.67
2023-01-23T11:52:47.824Z,13.60
2023-01-23T11:55:17.333Z,13.70
2023-01-23T11:57:43.923Z,13.77
2023-01-23T12:00:13.179Z,13.43
2023-01-23T12:02:53.024Z,13.33
2023-01-23T12:05:35.398Z,12.80
2023-01-23T12:08:01.671Z,13.93
2023-01-23T12:10:28.280Z,13.57
2023-01-23T12:12:59.662Z,13.13
2023-01-23T12:15:25.696Z,12.47
2023-01-23T12:17:49.618Z,12.50
2023-01-23T12:20:23.627Z,13.53
2023-01-23T12:22:49.058Z,13.47
2023-01-23T12:25:15.412Z,14.00
2023-01-23T12:27:42.078Z,13.67
2023-01-23T12:30:12.936Z,12.20
2023-01-23T12:32:44.347Z,13.50
2023-01-23T12:35:12.994Z,12.47
2023-01-23T12:37:46.380Z,12.70
2023-01-23T12:40:12.102Z,12.40
2023-01-23T12:42:37.897Z,14.87
2023-01-23T12:45:03.637Z,12.63
2023-01-23T12:47:26.758Z,13.43
2023-01-23T12:49:51.699Z,12.43
2023-01-23T12:52:16.536Z,11.20
2023-01-23T12:54:40.456Z,11.63
2023-01-23T12:57:03.009Z,13.00
2023-01-23T12:59:26.424Z,12.07
2023-01-23T13:01:53.529Z,12.07
2023-01-23T13:04:20.901Z,11.20
2023-01-23T13:06:57.089Z,10.50
2023-01-23T13:09:21.021Z,11.57
2023-01-23T13:11:45.687Z,11.60
2023-01-23T13:14:16.569Z,11.20
2023-01-23T13:16:46.124Z,10.97
2023-01-23T13:19:39.301Z,10.43
2023-01-23T13:22:05.862Z,12.10
2023-01-23T13:24:48.711Z,11.27
2023-01-23T13:27:28.968Z,11.73
2023-01-23T13:29:50.781Z,11.07
2023-01-23T13:32:22.443Z,10.97
2023-01-23T13:34:45.445Z,11.93
2023-01-23T13:37:25.568Z,10.10
2023-01-23T13:40:06.681Z,11.27
2023-01-23T13:42:35.817Z,10.00
2023-01-23T13:45:16.310Z,10.90
2023-01-23T14:25:15.768Z,10.43
2023-01-23T14:27:52.188Z,13.50
2023-01-23T14:30:18.740Z,11.50
2023-01-23T14:32:39.871Z,10.93
2023-01-23T14:35:01.582Z,10.90
2023-01-23T14:37:23.183Z,10.10
2023-01-23T14:39:53.123Z,10.00
2023-01-23T14:42:23.612Z,10.67
2023-01-23T14:44:46.338Z,10.40
2023-01-23T14:47:12.963Z,44.93
2023-01-23T14:49:36.034Z,11.73
2023-01-23T14:51:58.902Z,11.87
2023-01-23T14:54:22.937Z,10.63
2023-01-23T14:56:44.966Z,10.27
2023-01-23T14:59:07.799Z,11.30
2023-01-23T15:01:29.287Z,10.97
2023-01-23T15:03:58.153Z,10.83
2023-01-23T15:06:20.954Z,11.10
2023-01-23T15:08:42.457Z,11.83
2023-01-23T15:11:06.428Z,11.20
2023-01-23T15:13:30.152Z,11.07
2023-01-23T15:15:54.424Z,10.97
2023-01-23T15:18:21.717Z,11.73
2023-01-23T15:20:53.315Z,12.07
2023-01-23T15:23:21.728Z,11.03
2023-01-23T15:25:42.985Z,11.73
2023-01-23T15:28:19.160Z,10.80
2023-01-23T15:30:43.303Z,11.97
2023-01-23T15:33:07.313Z,12.17
2023-01-23T15:35:28.797Z,11.67
2023-01-23T15:37:54.677Z,12.07
2023-01-23T15:40:16.895Z,11.50
2023-01-23T15:42:38.090Z,12.33
2023-01-23T15:45:01.429Z,16.17
2023-01-23T15:47:22.897Z,13.27
2023-01-23T15:49:44.068Z,12.60
2023-01-23T15:52:17.288Z,13.23
2023-01-23T15:54:40.502Z,14.50
2023-01-23T15:57:09.133Z,13.93
2023-01-23T15:59:34.175Z,13.63
2023-01-23T16:01:55.180Z,13.27
2023-01-23T16:04:17.444Z,12.97
2023-01-23T16:06:39.081Z,12.07
2023-01-23T16:09:05.330Z,13.63
2023-01-23T16:11:30.068Z,12.53
2023-01-23T16:13:51.556Z,12.40
2023-01-23T16:16:14.279Z,13.03
2023-01-23T16:18:35.479Z,12.80
2023-01-23T16:20:56.669Z,13.43
2023-01-23T16:23:19.430Z,13.73
2023-01-23T16:25:45.127Z,13.87
2023-01-23T16:28:12.451Z,12.23
2023-01-23T16:30:33.951Z,12.60
2023-01-23T16:32:57.184Z,13.10
2023-01-23T16:35:18.627Z,13.20
2023-01-23T16:37:40.856Z,13.07
2023-01-23T16:40:02.202Z,13.43
2023-01-23T16:42:25.175Z,13.27
2023-01-23T16:44:48.084Z,12.87
2023-01-23T16:47:09.358Z,13.17
2023-01-23T16:49:34.183Z,11.97
2023-01-23T16:51:58.495Z,14.77
2023-01-23T16:54:21.158Z,13.47
2023-01-23T16:56:43.147Z,12.40
2023-01-23T16:59:05.765Z,13.53
2023-01-23T17:01:29.745Z,13.73
2023-01-23T17:03:55.015Z,18.00
2023-01-23T17:06:16.622Z,18.73
2023-01-23T17:08:37.701Z,16.17
2023-01-23T17:11:03.625Z,15.17
2023-01-23T17:13:25.182Z,14.13
2023-01-23T17:15:46.535Z,14.00
2023-01-23T17:18:17.742Z,13.90
2023-01-23T17:20:40.066Z,15.33
2023-01-23T17:23:01.264Z,13.80
2023-01-23T17:25:23.381Z,13.77
2023-01-23T17:27:47.404Z,17.63
2023-01-23T17:30:15.123Z,14.73
2023-01-23T17:32:37.257Z,14.63
2023-01-23T17:35:02.606Z,14.40
2023-01-23T17:37:24.609Z,14.30
2023-01-23T17:39:45.843Z,14.67
2023-01-23T17:42:07.151Z,15.10
2023-01-23T17:44:28.390Z,14.13
2023-01-23T17:46:49.788Z,14.87
2023-01-23T17:49:22.936Z,16.33
2023-01-23T17:51:45.763Z,15.93
2023-01-23T17:54:06.891Z,14.17
2023-01-23T17:56:28.618Z,14.60
2023-01-23T17:58:50.191Z,13.87
2023-01-23T18:01:19.039Z,13.90
2023-01-23T18:03:41.202Z,14.67
2023-01-23T18:06:04.784Z,14.97
2023-01-23T18:08:27.103Z,15.43
2023-01-23T18:10:50.098Z,17.37
2023-01-23T18:13:18.224Z,14.50
2023-01-23T18:15:43.476Z,15.20
2023-01-23T18:18:12.828Z,16.20
2023-01-23T18:20:34.672Z,14.87
2023-01-23T18:22:56.668Z,15.67
2023-01-23T18:25:21.805Z,14.93
2023-01-23T18:27:43.683Z,18.07
2023-01-23T18:30:17.171Z,15.23
2023-01-23T18:32:50.917Z,14.27
2023-01-23T18:35:16.283Z,17.23
2023-01-23T18:37:43.373Z,21.53
2023-01-23T18:40:11.187Z,18.10
2023-01-23T18:42:38.566Z,19.27
2023-01-23T18:45:02.753Z,15.57
2023-01-23T18:47:25.435Z,14.10
2023-01-23T18:49:46.749Z,15.63
2023-01-23T18:52:10.670Z,15.03
2023-01-23T18:54:34.397Z,16.17
2023-01-23T18:56:58.841Z,17.20
2023-01-23T18:59:23.865Z,15.60
2023-01-23T19:01:52.127Z,16.00
2023-01-23T19:04:15.007Z,14.60
2023-01-23T19:06:37.321Z,19.07
2023-01-23T19:08:59.170Z,19.03
2023-01-23T19:11:24.709Z,16.80
2023-01-23T19:13:59.837Z,15.83
2023-01-23T19:16:29.496Z,14.83
2023-01-23T19:18:55.256Z,13.47
2023-01-23T19:21:20.375Z,13.73
2023-01-23T19:23:45.784Z,14.90
2023-01-23T19:26:10.094Z,14.10
2023-01-23T19:28:31.817Z,14.13
2023-01-23T19:30:53.276Z,13.63
2023-01-23T19:33:17.836Z,14.30
2023-01-23T19:35:39.067Z,14.37
2023-01-23T19:38:00.552Z,13.07
2023-01-23T19:40:21.592Z,14.00
2023-01-23T19:42:54.150Z,14.17
2023-01-23T19:45:18.267Z,15.63
2023-01-23T19:47:39.630Z,14.93
2023-01-23T19:50:02.318Z,13.37
2023-01-23T19:52:23.328Z,13.70
2023-01-23T19:54:44.646Z,14.47
2023-01-23T19:57:05.834Z,14.53
2023-01-23T19:59:27.332Z,14.40
2023-01-23T20:01:51.015Z,15.03
2023-01-23T20:04:16.077Z,14.87
2023-01-23T20:06:40.657Z,15.93
2023-01-23T20:09:01.546Z,14.67
2023-01-23T20:11:22.923Z,14.70
2023-01-23T20:13:44.269Z,15.10
2023-01-23T20:16:15.471Z,16.33
2023-01-23T20:18:36.782Z,16.00
2023-01-23T20:20:59.470Z,16.10
2023-01-23T20:23:22.109Z,16.00
2023-01-23T20:25:43.579Z,16.60
2023-01-23T20:28:05.023Z,16.20
2023-01-23T20:30:26.216Z,16.83
2023-01-23T20:32:47.117Z,16.63
2023-01-23T20:35:08.855Z,15.97
2023-01-23T20:37:30.719Z,16.03
2023-01-23T20:39:53.363Z,16.00
2023-01-23T20:42:14.405Z,15.30
2023-01-23T20:44:35.518Z,15.80
2023-01-23T20:46:56.884Z,16.27
2023-01-23T20:49:18.208Z,15.60
2023-01-23T20:51:39.589Z,15.60
2023-01-23T20:54:00.105Z,16.03
2023-01-23T20:56:27.724Z,17.30
2023-01-23T20:59:06.852Z,15.90
2023-01-23T21:01:29.063Z,17.20
2023-01-23T21:03:50.747Z,16.57
2023-01-23T21:06:12.873Z,16.53
2023-01-23T21:08:34.670Z,17.23
2023-01-23T21:10:55.898Z,16.27
2023-01-23T21:13:18.339Z,17.13
2023-01-23T21:15:39.730Z,16.63
2023-01-23T21:18:01.165Z,16.60
2023-01-23T21:20:22.398Z,17.97
2023-01-23T21:22:43.695Z,16.63
2023-01-23T21:25:05.163Z,18.50
2023-01-23T21:27:26.202Z,18.07
2023-01-23T21:29:48.999Z,18.07
2023-01-23T21:32:10.438Z,17.17
2023-01-23T21:34:31.808Z,18.10
2023-01-23T21:36:53.659Z,18.27
2023-01-23T21:39:15.652Z,16.30
2023-01-23T21:41:37.007Z,17.67
2023-01-23T21:43:58.389Z,17.00
2023-01-23T21:46:21.127Z,16.90
2023-01-23T21:48:43.118Z,17.23
2023-01-23T21:51:04.673Z,17.27
2023-01-23T21:53:25.797Z,16.80
2023-01-23T21:55:52.193Z,17.60
2023-01-23T21:58:13.332Z,16.73
2023-01-23T22:00:52.255Z,17.43
2023-01-23T22:03:15.032Z,17.43
2023-01-23T22:05:36.539Z,15.97
2023-01-23T22:07:57.732Z,16.00
2023-01-23T22:10:19.149Z,16.90
2023-01-23T22:12:40.373Z,16.87
2023-01-23T22:15:01.507Z,17.33
2023-01-23T22:17:22.708Z,16.33
2023-01-23T22:19:45.493Z,18.27
2023-01-23T22:22:06.661Z,16.67
2023-01-23T22:24:27.729Z,17.63
2023-01-23T22:26:49.141Z,18.70
2023-01-23T22:29:12.041Z,16.67
2023-01-23T22:31:33.466Z,17.10
2023-01-23T22:33:56.163Z,17.07
2023-01-23T22:36:19.709Z,17.90
2023-01-23T22:38:41.403Z,17.40
2023-01-23T22:41:03.534Z,17.73
2023-01-23T22:43:24.896Z,17.40
2023-01-23T22:45:46.235Z,17.63
2023-01-23T22:48:07.728Z,17.70
2023-01-23T22:50:29.553Z,16.60
2023-01-23T22:52:51.974Z,16.90
2023-01-23T22:55:13.161Z,16.57
2023-01-23T22:57:34.303Z,16.43
2023-01-23T22:59:55.621Z,16.10
2023-01-23T23:02:16.884Z,15.90
2023-01-23T23:04:38.245Z,16.23
2023-01-23T23:06:59.750Z,16.73
2023-01-23T23:09:22.513Z,15.83
2023-01-23T23:11:44.684Z,15.67
2023-01-23T23:14:06.290Z,16.27
2023-01-23T23:16:29.329Z,16.27
2023-01-23T23:18:51.353Z,16.63
2023-01-23T23:21:13.369Z,16.33
2023-01-23T23:23:34.546Z,15.83
2023-01-23T23:25:57.117Z,16.23
2023-01-23T23:28:18.527Z,16.23
2023-01-23T23:30:39.854Z,14.87
2023-01-23T23:33:01.324Z,15.30
2023-01-23T23:35:22.986Z,16.67
2023-01-23T23:37:44.590Z,16.40
2023-01-23T23:40:06.389Z,16.93
2023-01-23T23:42:29.103Z,15.80
2023-01-23T23:44:50.418Z,16.67
2023-01-23T23:47:11.742Z,15.53
2023-01-23T23:49:33.122Z,16.17
2023-01-23T23:51:54.361Z,16.57
2023-01-23T23:54:15.758Z,16.80
2023-01-23T23:56:37.036Z,16.17
2023-01-23T23:58:59.765Z,14.67
